• Join FlightAware (Why Join?)
  • Login
  • US Flag 
08:31PM EDT


 

Airport Tracker/Info


-or-


 

Live Flight TrackerFlight Track Log ✈ FLG3804 ✈ 07-May-2012 ✈ KATL - KHPN

Flight Track Log - Related Links

Times and Time Zones

All times are in EDT time to prevent confusion due to time zone crossing. See the FLG3804 flight status page for this flight to view local times or setup timezone preferences in your user account.

Time Position Orientation Groundspeed Altitude Reporting Facility
EDT Latitude Longitude Course Direction KTS MPH feet Rate Location/Type
10:54PM 33.6333 -84.3667 90° East 187 215 2,700  Level Atlanta TRACON
10:55PM 33.6333 -84.2833 90° East 260 299 4,800 2,340 Climbing Atlanta TRACON
10:56PM 33.6333 -84.2167 89° East 274 315 6,700 2,400 Climbing Atlanta TRACON
10:57PM 33.6356 -84.1061 51° Northeast 308 354 9,700 2,100 Climbing Atlanta Center
10:58PM 33.6900 -84.0264 47° Northeast 289 333 11,600 1,680 Climbing Atlanta Center
10:59PM 33.7586 -83.9389 46° Northeast 332 382 13,100 1,500 Climbing Atlanta Center
11:00PM 33.8317 -83.8464 47° Northeast 362 417 14,600 1,560 Climbing Atlanta Center
11:01PM 33.9086 -83.7458 52° Northeast 389 448 16,300 1,740 Climbing Atlanta Center
11:02PM 33.9794 -83.6356 51° Northeast 407 468 18,100 1,800 Climbing Atlanta Center
11:03PM 34.0519 -83.5272 54° Northeast 413 475 19,900 1,500 Climbing Atlanta Center
11:04PM 34.1225 -83.4114 53° Northeast 418 481 21,200 1,260 Climbing Atlanta Center
11:05PM 34.1947 -83.2953 53° Northeast 425 489 22,500 1,200 Climbing Atlanta Center
11:06PM 34.2753 -83.1639 53° Northeast 437 503 23,600 1,020 Climbing Atlanta Center
11:08PM 34.4297 -82.9156 52° Northeast 456 525 25,700 1,020 Climbing Atlanta Center
11:09PM 34.5122 -82.7883 53° Northeast 467 537 26,700 960 Climbing Atlanta Center
11:10PM 34.5922 -82.6586 54° Northeast 467 537 27,700 1,140 Climbing Atlanta Center
11:13PM 34.8147 -82.2856 53° Northeast 472 543 31,300 1,140 Climbing Atlanta Center
11:14PM 34.8942 -82.1547 52° Northeast 472 543 32,300 900 Climbing Atlanta Center
11:15PM 34.9736 -82.0311 56° Northeast 466 536 33,400 480 Climbing Atlanta Center
11:19PM 35.2742 -81.4744 57° Northeast 471 542 35,000 120 Climbing Atlanta Center
11:24PM 35.6314 -80.7861 57° Northeast 481 554 35,000  Level Atlanta Center
11:25PM 35.7008 -80.6531 57° Northeast 472 543 35,000  Level Atlanta Center
11:26PM 35.7700 -80.5194 58° Northeast 465 535 35,000  Level Atlanta Center
11:27PM 35.8411 -80.3808 58° Northeast 470 541 35,000  Level Atlanta Center
11:30PM 36.0036 -80.0647 57° Northeast 467 537 35,000  Level Washington Center
11:31PM 36.0664 -79.9450 55° Northeast 467 537 35,000  Level Washington Center
11:32PM 36.1400 -79.8128 54° Northeast 467 537 35,000  Level Washington Center
11:33PM 36.2244 -79.6678 56° Northeast 469 540 35,000  Level Washington Center
11:34PM 36.2911 -79.5450 54° Northeast 469 540 35,000  Level Washington Center
11:35PM 36.3683 -79.4147 58° Northeast 474 545 35,000  Level Washington Center
11:36PM 36.4439 -79.2661 54° Northeast 469 540 35,000  Level Washington Center
11:37PM 36.5144 -79.1456 54° Northeast 476 548 35,000  Level Washington Center
11:38PM 36.5978 -79.0044 56° Northeast 466 536 35,000  Level Washington Center
11:39PM 36.6572 -78.8956 57° Northeast 466 536 35,000  Level Washington Center
11:40PM 36.7431 -78.7283 55° Northeast 466 536 35,000  Level Washington Center
11:41PM 36.8172 -78.5964 55° Northeast 471 542 35,000  Level Washington Center
11:42PM 36.8914 -78.4642 56° Northeast 471 542 35,000  Level Washington Center
11:43PM 36.9678 -78.3214 56° Northeast 476 548 35,000  Level Washington Center
11:44PM 37.0331 -78.1989 55° Northeast 476 548 35,000  Level Washington Center
11:45PM 37.1156 -78.0531 57° Northeast 476 548 35,000  Level Washington Center
11:46PM 37.1872 -77.9147 56° Northeast 476 548 35,000  Level Washington Center
11:47PM 37.2606 -77.7786 56° Northeast 476 548 35,000  Level Washington Center
11:48PM 37.3339 -77.6397 56° Northeast 476 548 35,000  Level Washington Center
11:49PM 37.4072 -77.5003 56° Northeast 476 548 35,000  Level Washington Center
11:50PM 37.4825 -77.3608 43° Northeast 476 548 35,000  Level Washington Center
11:51PM 37.5778 -77.2478 39° Northeast 467 537 35,000  Level Washington Center
11:52PM 37.6814 -77.1400 38° Northeast 467 537 35,000  Level Washington Center
11:53PM 37.7869 -77.0344 39° Northeast 473 544 35,000  Level Washington Center
11:54PM 37.8906 -76.9286 41° Northeast 478 550 35,000  Level Washington Center
11:55PM 37.9897 -76.8194 47° Northeast 478 550 35,000  Level Washington Center
11:56PM 38.0806 -76.6944 49° Northeast 473 544 35,000  Level Washington Center
11:57PM 38.1672 -76.5689 48° Northeast 473 544 35,000  Level Washington Center
11:58PM 38.2556 -76.4431 39° Northeast 473 544 35,000  Level Washington Center
11:59PM 38.3606 -76.3358 36° Northeast 468 539 35,000  Level Washington Center
12:00AM 38.4675 -76.2361 37° Northeast 468 539 35,000  Level Washington Center
12:01AM 38.5744 -76.1333 34° Northeast 474 545 35,000  Level Washington Center
12:02AM 38.6831 -76.0386 36° Northeast 474 545 35,000  Level Washington Center
12:03AM 38.7897 -75.9378 37° Northeast 474 545 35,000  Level Washington Center
12:04AM 38.8983 -75.8344 37° Northeast 474 545 35,000  Level Washington Center
12:05AM 39.0069 -75.7306 36° Northeast 474 545 35,000 -300 Level Washington Center
12:06AM 39.1156 -75.6292 36° Northeast 479 551 34,500 -1,440 Descending Washington Center
12:07AM 39.2258 -75.5272 35° Northeast 479 551 32,100 -2,400 Descending Washington Center
12:08AM 39.3342 -75.4278 36° Northeast 479 551 29,800 -2,340 Descending Washington Center
12:09AM 39.4425 -75.3256 34° Northeast 479 551 27,500 -2,340 Descending Washington Center
12:10AM 39.5525 -75.2283 51° Northeast 473 544 25,200 -1,500 Descending Washington Center
12:12AM 39.7050 -74.9803 63° Northeast 456 525 23,000 -720 Descending New York Center
12:13AM 39.7689 -74.8167 59° Northeast 451 519 23,000  Level New York Center
12:14AM 39.8297 -74.6850 60° Northeast 456 525 23,000  Level New York Center
12:15AM 39.9039 -74.5186 59° Northeast 467 537 23,000  Level New York Center
12:16AM 39.9644 -74.3864 60° Northeast 467 537 23,000  Level New York Center
12:17AM 40.0294 -74.2381 60° Northeast 472 543 23,000  Level New York Center
12:18AM 40.0942 -74.0894 61° Northeast 472 543 23,000 -1,020 Level New York Center
12:20AM 40.2422 -73.7394 60° Northeast 459 528 19,800 -1,620 Descending Boston Center
12:21AM 40.3022 -73.6019 57° Northeast 434 499 17,800 -1,440 Descending Boston Center
12:22AM 40.3639 -73.4778 21° North 422 486 17,000 -420 Descending Boston Center
12:23AM 40.4664 -73.4247 16° North 385 443 17,000  Level Boston Center
12:24AM 40.5731 -73.3853 15° North 377 434 17,000 -600 Level Boston Center
12:25AM 40.7167 -73.3333 32° Northeast 395 455 15,700 -1,080 Descending New York TRACON
12:26AM 40.8167 -73.2500 52° Northeast 367 422 14,400 -1,200 Descending New York TRACON
12:27AM 40.8667 -73.1667 56° Northeast 321 369 13,200 -1,500 Descending New York TRACON
12:28AM 40.9167 -73.0667 337° Northwest 307 353 11,400 -1,920 Descending New York TRACON
12:30AM 41.0333 -73.1333 298° West 265 305 7,400 -1,980 Descending New York TRACON
12:31AM 41.0667 -73.2167 298° West 269 310 5,400 -1,680 Descending New York TRACON
12:32AM 41.1000 -73.3000 298° West 271 312 4,100 -900 Descending New York TRACON
12:34AM 41.1333 -73.3833 312° West 222 255 3,600 -1,020 Descending New York TRACON
12:34AM 41.1667 -73.4333 304° West 214 246 2,100 -840 Descending New York TRACON
12:35AM 41.2000 -73.5000 304° West 215 247 2,100  Level New York TRACON
12:36AM 41.2333 -73.5667 294° West 208 239 2,100  Level New York TRACON
12:37AM 41.2500 -73.6167 270° West 212 244 2,100  Level New York TRACON
12:38AM 41.2500 -73.7000 246° West 196 226 2,100  Level New York TRACON
12:39AM 41.2333 -73.7500 246° West 189 217 2,100  Level New York TRACON